createdAt,value
2023-03-02T00:02:13.663Z,182.60
2023-03-02T00:04:45.810Z,181.20
2023-03-02T00:07:27.944Z,184.10
2023-03-02T00:09:55.858Z,186.70
2023-03-02T00:12:27.045Z,180.80
2023-03-02T00:14:55.362Z,184.40
2023-03-02T00:17:27.951Z,181.50
2023-03-02T00:20:11.244Z,194.20
2023-03-02T00:22:41.111Z,203.30
2023-03-02T00:25:10.016Z,183.70
2023-03-02T00:27:37.944Z,192.00
2023-03-02T00:30:07.477Z,173.40
2023-03-02T00:32:35.420Z,157.10
2023-03-02T00:35:04.509Z,154.20
2023-03-02T00:37:34.515Z,162.60
2023-03-02T00:40:06.307Z,172.40
2023-03-02T00:42:34.380Z,174.00
2023-03-02T00:45:04.799Z,168.80
2023-03-02T00:47:37.212Z,160.70
2023-03-02T00:50:06.746Z,157.90
2023-03-02T00:52:35.060Z,159.20
2023-03-02T00:55:02.952Z,162.00
2023-03-02T00:57:31.476Z,156.60
2023-03-02T00:59:59.984Z,151.80
2023-03-02T01:02:33.813Z,151.70
2023-03-02T01:05:01.971Z,147.30
2023-03-02T01:07:29.889Z,153.20
2023-03-02T01:09:57.985Z,160.90
2023-03-02T01:12:25.876Z,166.40
2023-03-02T01:14:54.916Z,160.40
2023-03-02T01:17:22.980Z,160.40
2023-03-02T01:19:51.721Z,163.90
2023-03-02T01:22:20.705Z,165.10
2023-03-02T01:24:49.025Z,182.80
2023-03-02T01:27:16.955Z,195.00
2023-03-02T01:29:45.302Z,207.30
2023-03-02T01:32:13.372Z,191.90
2023-03-02T01:34:41.430Z,187.90
2023-03-02T01:37:09.324Z,179.10
2023-03-02T01:39:37.347Z,160.90
2023-03-02T01:42:05.492Z,153.10
2023-03-02T01:44:39.886Z,157.60
2023-03-02T01:47:17.312Z,157.40
2023-03-02T01:50:05.222Z,155.00
2023-03-02T01:52:39.984Z,161.30
2023-03-02T01:55:12.020Z,171.30
2023-03-02T01:57:44.484Z,169.70
2023-03-02T02:00:36.698Z,172.60
2023-03-02T02:03:21.250Z,178.10
2023-03-02T02:08:28.802Z,148.20
2023-03-02T02:10:56.842Z,147.20
2023-03-02T02:13:25.087Z,142.10
2023-03-02T02:15:52.953Z,136.60
2023-03-02T02:18:20.898Z,139.70
2023-03-02T02:20:51.812Z,145.70
2023-03-02T02:23:33.767Z,144.00
2023-03-02T02:26:12.150Z,141.20
2023-03-02T02:28:45.016Z,137.70
2023-03-02T02:31:13.014Z,142.90
2023-03-02T02:33:46.066Z,139.00
2023-03-02T02:36:23.208Z,134.30
2023-03-02T02:38:55.956Z,137.40
2023-03-02T02:41:28.763Z,137.90
2023-03-02T02:43:57.206Z,138.60
2023-03-02T02:46:25.968Z,136.10
2023-03-02T02:48:54.458Z,140.20
2023-03-02T02:51:26.646Z,190.00
2023-03-02T02:54:02.724Z,147.60
2023-03-02T02:56:38.367Z,147.90
2023-03-02T02:59:22.852Z,150.80
2023-03-02T03:01:51.748Z,158.70
2023-03-02T03:04:26.797Z,155.60
2023-03-02T03:06:58.050Z,217.20
2023-03-02T03:09:27.581Z,172.90
2023-03-02T03:12:14.009Z,154.00
2023-03-02T03:14:43.406Z,145.70
2023-03-02T03:17:14.027Z,150.50
2023-03-02T03:19:55.217Z,152.20
2023-03-02T03:22:23.496Z,149.50
2023-03-02T03:24:51.749Z,144.40
2023-03-02T03:27:19.902Z,146.80
2023-03-02T03:29:48.463Z,134.10
2023-03-02T03:32:19.793Z,131.90
2023-03-02T03:34:48.494Z,129.40
2023-03-02T03:37:22.280Z,125.00
2023-03-02T03:39:51.134Z,132.20
2023-03-02T03:42:19.362Z,130.30
2023-03-02T03:44:47.695Z,132.40
2023-03-02T03:47:16.057Z,137.60
2023-03-02T03:49:44.604Z,133.00
2023-03-02T03:52:12.606Z,131.70
2023-03-02T03:54:40.747Z,132.00
2023-03-02T03:57:10.749Z,128.40
2023-03-02T03:59:38.822Z,128.70
2023-03-02T04:02:07.043Z,128.70
2023-03-02T04:04:37.943Z,128.90
2023-03-02T04:07:10.024Z,130.40
2023-03-02T04:09:39.410Z,125.60
2023-03-02T04:12:11.730Z,127.80
2023-03-02T04:14:42.396Z,121.60
2023-03-02T04:17:10.283Z,134.80
2023-03-02T04:19:42.338Z,128.50
2023-03-02T04:22:10.722Z,114.90
2023-03-02T04:24:38.655Z,105.00
2023-03-02T04:27:06.663Z,95.90
2023-03-02T04:29:37.003Z,90.50
2023-03-02T04:32:07.433Z,87.90
2023-03-02T04:34:37.744Z,73.30
2023-03-02T04:37:05.990Z,70.70
2023-03-02T04:39:34.219Z,71.80
2023-03-02T04:42:02.278Z,65.00
2023-03-02T04:44:30.280Z,65.00
2023-03-02T04:46:58.359Z,52.50
2023-03-02T04:49:26.390Z,51.30
2023-03-02T04:51:54.563Z,51.60
2023-03-02T04:54:26.923Z,51.00
2023-03-02T04:56:55.806Z,51.60
2023-03-02T04:59:27.258Z,46.90
2023-03-02T05:01:58.974Z,46.90
2023-03-02T05:04:28.719Z,46.50
2023-03-02T05:06:57.837Z,43.00
2023-03-02T05:09:31.057Z,41.10
2023-03-02T05:12:01.390Z,42.80
2023-03-02T05:14:30.247Z,44.70
2023-03-02T05:16:58.817Z,41.10
2023-03-02T05:19:26.798Z,42.30
2023-03-02T05:21:56.577Z,40.80
2023-03-02T05:24:24.991Z,42.00
2023-03-02T05:26:52.944Z,41.90
2023-03-02T05:29:20.900Z,40.70
2023-03-02T05:31:49.773Z,39.00
2023-03-02T05:34:18.255Z,40.10
2023-03-02T05:36:46.594Z,39.40
2023-03-02T05:39:14.580Z,38.50
2023-03-02T05:41:42.465Z,37.40
2023-03-02T05:44:12.193Z,37.20
2023-03-02T05:46:40.728Z,36.60
2023-03-02T05:49:08.842Z,36.70
2023-03-02T05:51:36.678Z,37.00
2023-03-02T05:54:04.691Z,38.60
2023-03-02T05:56:33.182Z,36.00
2023-03-02T05:59:01.470Z,34.50
2023-03-02T06:01:29.338Z,32.20
2023-03-02T06:03:57.208Z,34.70
2023-03-02T06:06:25.225Z,36.50
2023-03-02T06:08:53.075Z,33.50
2023-03-02T06:11:21.096Z,31.50
2023-03-02T06:13:49.071Z,30.00
2023-03-02T06:16:17.142Z,28.70
2023-03-02T06:18:44.920Z,30.10
2023-03-02T06:21:13.111Z,26.20
2023-03-02T06:23:41.050Z,27.70
2023-03-02T06:26:10.882Z,25.90
2023-03-02T06:28:51.503Z,28.20
2023-03-02T06:31:21.872Z,26.90
2023-03-02T06:33:50.244Z,26.60
2023-03-02T06:36:18.442Z,24.30
2023-03-02T06:38:46.564Z,24.70
2023-03-02T06:41:14.804Z,25.30
2023-03-02T06:43:43.013Z,22.50
2023-03-02T06:46:11.956Z,24.70
2023-03-02T06:48:40.046Z,23.80
2023-03-02T06:51:08.608Z,22.80
2023-03-02T06:53:36.751Z,24.90
2023-03-02T06:56:05.255Z,24.90
2023-03-02T06:58:33.289Z,22.70
2023-03-02T07:01:01.451Z,24.40
2023-03-02T07:03:29.641Z,23.70
2023-03-02T07:05:57.732Z,25.50
2023-03-02T07:08:26.101Z,23.40
2023-03-02T07:10:54.045Z,24.70
2023-03-02T07:13:22.080Z,23.10
2023-03-02T07:15:49.851Z,23.20
2023-03-02T07:18:17.750Z,22.80
2023-03-02T07:20:45.672Z,21.90
2023-03-02T07:23:13.568Z,21.40
2023-03-02T07:25:41.587Z,21.20
2023-03-02T07:28:09.523Z,22.30
2023-03-02T07:30:37.597Z,21.70
2023-03-02T07:33:05.533Z,20.00
2023-03-02T07:35:33.487Z,20.40
2023-03-02T07:38:01.461Z,19.40
2023-03-02T07:40:29.399Z,19.00
2023-03-02T07:42:57.543Z,20.40
2023-03-02T07:45:26.431Z,19.50
2023-03-02T07:47:54.330Z,17.20
2023-03-02T07:50:22.401Z,20.90
2023-03-02T07:52:50.233Z,19.90
2023-03-02T07:55:18.072Z,20.80
2023-03-02T07:57:46.001Z,18.60
2023-03-02T08:00:14.812Z,17.90
2023-03-02T08:02:43.173Z,19.60
2023-03-02T08:05:12.214Z,19.20
2023-03-02T08:07:41.054Z,17.60
2023-03-02T08:10:10.621Z,18.70
2023-03-02T08:12:38.520Z,18.50
2023-03-02T08:15:07.300Z,18.70
2023-03-02T08:17:35.362Z,19.10
2023-03-02T08:20:04.707Z,18.10
2023-03-02T08:22:32.606Z,19.90
2023-03-02T08:25:00.557Z,19.40
2023-03-02T08:27:28.611Z,19.80
2023-03-02T08:29:56.985Z,19.10
2023-03-02T08:32:25.209Z,20.00
2023-03-02T08:34:53.204Z,20.30
2023-03-02T08:37:21.197Z,20.50
2023-03-02T08:39:49.607Z,19.40
2023-03-02T08:42:17.925Z,19.00
2023-03-02T08:44:45.895Z,18.10
2023-03-02T08:47:13.817Z,18.30
2023-03-02T08:49:41.865Z,17.40
2023-03-02T08:52:09.893Z,17.70
2023-03-02T08:54:40.708Z,17.70
2023-03-02T08:57:11.605Z,15.70
2023-03-02T08:59:40.065Z,16.20
2023-03-02T09:02:11.003Z,16.00
2023-03-02T09:04:39.395Z,16.50
2023-03-02T09:07:07.523Z,16.40
2023-03-02T09:09:35.657Z,14.90
2023-03-02T09:12:03.939Z,16.60
2023-03-02T09:14:31.768Z,14.90
2023-03-02T09:16:59.817Z,14.70
2023-03-02T09:19:27.906Z,15.10
2023-03-02T09:21:55.839Z,14.90
2023-03-02T09:24:23.859Z,15.10
2023-03-02T09:26:51.905Z,14.40
2023-03-02T09:29:19.911Z,15.10
2023-03-02T09:31:47.826Z,16.30
2023-03-02T09:34:15.812Z,16.30
2023-03-02T09:36:43.613Z,15.20
2023-03-02T09:39:12.587Z,15.00
2023-03-02T09:41:49.878Z,15.30
2023-03-02T09:44:38.652Z,18.10
2023-03-02T09:47:36.045Z,17.60
2023-03-02T09:50:16.071Z,18.20
2023-03-02T09:52:52.389Z,18.90
2023-03-02T09:55:26.011Z,17.20
2023-03-02T09:57:56.189Z,17.70
2023-03-02T10:00:28.542Z,18.20
2023-03-02T10:03:16.619Z,16.10
2023-03-02T10:05:51.362Z,15.80
2023-03-02T10:08:26.781Z,15.80
2023-03-02T10:10:58.122Z,16.40
2023-03-02T10:13:36.260Z,16.40
2023-03-02T10:16:13.071Z,18.50
2023-03-02T10:18:49.796Z,16.80
2023-03-02T10:21:27.072Z,17.70
2023-03-02T10:24:11.459Z,16.30
2023-03-02T10:26:44.831Z,15.90
2023-03-02T10:29:27.954Z,21.40
2023-03-02T10:32:21.500Z,16.90
2023-03-02T10:34:51.358Z,15.90
2023-03-02T10:37:28.536Z,14.20
2023-03-02T10:39:56.782Z,15.90
2023-03-02T10:42:32.633Z,16.10
2023-03-02T10:45:24.020Z,18.80
2023-03-02T10:48:06.869Z,15.20
2023-03-02T10:50:35.346Z,17.30
2023-03-02T10:53:06.308Z,17.30
2023-03-02T10:55:35.016Z,16.30
2023-03-02T10:58:07.265Z,15.10
2023-03-02T11:00:36.785Z,23.20
2023-03-02T11:03:20.285Z,17.90
2023-03-02T11:05:49.263Z,19.40
2023-03-02T11:08:18.405Z,17.40
2023-03-02T11:10:59.766Z,19.90
2023-03-02T11:13:38.698Z,86.00
2023-03-02T11:16:19.218Z,24.40
2023-03-02T11:18:55.511Z,21.00
2023-03-02T11:21:44.224Z,17.50
2023-03-02T11:24:21.485Z,18.00
2023-03-02T11:26:54.388Z,16.70
2023-03-02T11:29:35.633Z,16.40
2023-03-02T11:32:27.487Z,17.70
2023-03-02T11:35:02.966Z,15.80
2023-03-02T11:37:48.166Z,16.90
2023-03-02T11:40:24.852Z,19.00
2023-03-02T11:42:56.775Z,22.20
2023-03-02T11:45:28.492Z,18.20
2023-03-02T11:48:26.619Z,17.20
2023-03-02T11:50:57.922Z,18.00
2023-03-02T11:53:34.026Z,18.60
2023-03-02T11:56:02.071Z,19.10
2023-03-02T11:58:32.882Z,17.70
2023-03-02T12:01:02.032Z,18.20
2023-03-02T12:03:32.772Z,20.10
2023-03-02T12:06:05.245Z,18.70
2023-03-02T12:08:38.720Z,18.50
2023-03-02T12:11:06.601Z,19.00
2023-03-02T12:13:38.659Z,18.30
2023-03-02T12:16:35.853Z,19.20
2023-03-02T12:19:16.493Z,20.00
2023-03-02T12:21:56.995Z,20.20
2023-03-02T12:24:26.366Z,20.90
2023-03-02T12:27:25.807Z,19.00
2023-03-02T12:30:11.279Z,21.60
2023-03-02T12:32:39.401Z,22.60
2023-03-02T12:35:07.372Z,22.40
2023-03-02T12:38:05.462Z,20.00
2023-03-02T12:40:51.862Z,20.40
2023-03-02T12:44:06.228Z,21.40
2023-03-02T12:46:37.359Z,14.90
2023-03-02T12:49:20.251Z,20.40
2023-03-02T12:52:04.017Z,18.80
2023-03-02T12:54:34.589Z,18.80
2023-03-02T12:57:14.080Z,19.50
2023-03-02T12:59:42.946Z,20.40
2023-03-02T13:02:23.272Z,19.90
2023-03-02T13:04:55.491Z,19.40
2023-03-02T13:07:28.843Z,21.70
2023-03-02T13:09:58.857Z,22.30
2023-03-02T13:12:29.408Z,18.40
2023-03-02T13:14:59.153Z,19.20
2023-03-02T13:17:31.271Z,19.30
2023-03-02T13:20:01.721Z,19.80
2023-03-02T13:22:30.256Z,19.60
2023-03-02T13:25:02.158Z,17.90
2023-03-02T13:27:31.892Z,19.70
2023-03-02T13:30:23.883Z,21.80
2023-03-02T13:32:54.545Z,19.90
2023-03-02T13:35:26.726Z,19.90
2023-03-02T13:38:04.916Z,19.50
2023-03-02T13:40:47.789Z,20.00
2023-03-02T13:43:31.205Z,22.20
2023-03-02T13:46:00.470Z,20.70
2023-03-02T13:48:29.918Z,28.90
2023-03-02T13:51:01.585Z,22.70
2023-03-02T13:53:34.757Z,24.70
2023-03-02T13:56:03.932Z,24.90
2023-03-02T13:58:38.480Z,21.80
2023-03-02T14:01:07.718Z,23.80
2023-03-02T14:03:35.656Z,21.70
2023-03-02T14:06:03.572Z,22.20
2023-03-02T14:08:32.128Z,22.80
2023-03-02T14:11:02.639Z,21.70
2023-03-02T14:13:51.695Z,20.20
2023-03-02T14:16:20.177Z,22.20
2023-03-02T14:18:51.110Z,20.40
2023-03-02T14:21:24.382Z,21.90
2023-03-02T14:23:54.018Z,28.60
2023-03-02T14:26:54.423Z,31.90
2023-03-02T14:29:34.684Z,28.60
2023-03-02T14:32:04.436Z,24.00
2023-03-02T14:34:36.047Z,22.60
2023-03-02T14:37:10.718Z,20.90
2023-03-02T14:39:46.414Z,24.10
2023-03-02T14:42:17.029Z,25.10
2023-03-02T14:44:48.923Z,25.50
2023-03-02T14:47:19.529Z,26.60
2023-03-02T14:49:49.461Z,25.50
2023-03-02T14:52:28.331Z,28.30
2023-03-02T14:54:59.686Z,25.70
2023-03-02T14:57:30.447Z,24.30
2023-03-02T15:00:01.343Z,24.20
2023-03-02T15:02:29.383Z,25.50
2023-03-02T15:04:57.849Z,26.60
2023-03-02T15:07:28.098Z,26.30
2023-03-02T15:09:58.058Z,27.30
2023-03-02T15:12:26.427Z,28.60
2023-03-02T15:14:54.353Z,27.10
2023-03-02T15:17:22.276Z,28.10
2023-03-02T15:19:50.493Z,27.90
2023-03-02T15:22:18.505Z,138.20
2023-03-02T15:24:46.600Z,52.60
2023-03-02T15:27:14.624Z,33.80
2023-03-02T15:29:44.949Z,35.70
2023-03-02T15:32:13.090Z,28.30
2023-03-02T15:34:41.068Z,27.20
2023-03-02T15:37:11.671Z,25.90
2023-03-02T15:39:40.343Z,26.50
2023-03-02T15:42:08.260Z,26.40
2023-03-02T15:44:36.360Z,26.80
2023-03-02T15:47:04.477Z,28.20
2023-03-02T15:49:32.969Z,28.90
2023-03-02T15:52:00.983Z,30.60
2023-03-02T15:54:29.521Z,33.20
2023-03-02T15:56:57.606Z,30.20
2023-03-02T15:59:27.719Z,34.70
2023-03-02T16:01:59.820Z,31.70
2023-03-02T16:04:30.402Z,29.90
2023-03-02T16:06:58.903Z,32.70
2023-03-02T16:09:29.095Z,32.90
2023-03-02T16:11:57.688Z,30.00
2023-03-02T16:14:26.062Z,32.40
2023-03-02T16:16:54.089Z,30.40
2023-03-02T16:19:22.095Z,31.60
2023-03-02T16:21:50.105Z,31.70
2023-03-02T16:24:18.240Z,32.90
2023-03-02T16:26:46.280Z,31.60
2023-03-02T16:29:14.602Z,31.90
2023-03-02T16:31:46.169Z,29.70
2023-03-02T16:34:14.662Z,29.50
2023-03-02T16:36:42.992Z,29.40
2023-03-02T16:39:12.117Z,30.50
2023-03-02T16:41:43.196Z,38.50
2023-03-02T16:44:13.486Z,32.10
2023-03-02T16:46:43.708Z,31.90
2023-03-02T16:49:13.526Z,35.90
2023-03-02T16:51:42.071Z,48.00
2023-03-02T16:54:14.484Z,61.70
2023-03-02T16:56:45.370Z,58.00
2023-03-02T16:59:13.480Z,90.40
2023-03-02T17:01:41.537Z,53.10
2023-03-02T17:04:09.791Z,51.80
2023-03-02T17:06:38.919Z,39.70
2023-03-02T17:09:06.999Z,99.80
2023-03-02T17:11:35.053Z,74.70
2023-03-02T17:14:02.960Z,34.60
2023-03-02T17:16:30.969Z,98.10
2023-03-02T17:18:59.930Z,76.70
2023-03-02T17:21:27.862Z,45.70
2023-03-02T17:23:55.893Z,374.20
2023-03-02T17:26:23.746Z,127.00
2023-03-02T17:28:51.632Z,48.10
2023-03-02T17:31:19.468Z,35.20
2023-03-02T17:33:47.485Z,31.50
2023-03-02T17:36:15.871Z,30.80
2023-03-02T17:38:43.920Z,32.20
2023-03-02T17:41:12.088Z,50.90
2023-03-02T17:43:41.881Z,70.00
2023-03-02T17:46:14.765Z,89.40
2023-03-02T17:48:43.266Z,54.00
2023-03-02T17:51:11.911Z,70.80
2023-03-02T17:53:39.842Z,46.80
2023-03-02T17:56:07.949Z,33.00
2023-03-02T17:58:44.648Z,36.30
2023-03-02T18:01:15.991Z,35.40
2023-03-02T18:03:45.224Z,32.60
2023-03-02T18:06:14.741Z,32.50
2023-03-02T18:08:42.685Z,35.20
2023-03-02T18:11:10.717Z,35.70
2023-03-02T18:13:40.222Z,31.10
2023-03-02T18:16:08.878Z,30.30
2023-03-02T18:18:36.985Z,29.80
2023-03-02T18:21:05.946Z,31.20
2023-03-02T18:23:34.090Z,32.50
2023-03-02T18:26:02.150Z,31.10
2023-03-02T18:28:30.187Z,31.20
2023-03-02T18:30:58.092Z,29.20
2023-03-02T18:33:26.539Z,28.00
2023-03-02T18:35:54.557Z,33.20
2023-03-02T18:38:22.781Z,45.20
2023-03-02T18:40:50.678Z,70.70
2023-03-02T18:43:18.714Z,53.90
2023-03-02T18:45:46.702Z,37.60
2023-03-02T18:48:14.562Z,32.90
2023-03-02T18:50:43.747Z,33.40
2023-03-02T18:53:12.932Z,32.80
2023-03-02T18:55:41.380Z,29.40
2023-03-02T18:58:17.060Z,34.30
2023-03-02T19:00:46.341Z,31.90
2023-03-02T19:03:16.813Z,34.30
2023-03-02T19:05:45.498Z,32.70
2023-03-02T19:08:13.418Z,34.80
2023-03-02T19:10:42.446Z,32.40
2023-03-02T19:13:11.761Z,30.50
2023-03-02T19:15:40.475Z,29.10
2023-03-02T19:18:09.819Z,28.90
2023-03-02T19:20:37.697Z,44.40
2023-03-02T19:23:05.590Z,34.70
2023-03-02T19:25:34.006Z,37.60
2023-03-02T19:28:02.253Z,34.60
2023-03-02T19:30:30.360Z,32.00
2023-03-02T19:32:58.266Z,30.80
2023-03-02T19:35:27.848Z,33.40
2023-03-02T19:37:56.492Z,36.30
2023-03-02T19:40:27.182Z,34.70
2023-03-02T19:42:57.131Z,35.20
2023-03-02T19:45:29.385Z,34.80
2023-03-02T19:47:58.406Z,35.80
2023-03-02T19:50:27.966Z,34.70
2023-03-02T19:52:57.150Z,34.60
2023-03-02T19:55:25.845Z,43.40
2023-03-02T19:58:00.202Z,48.30
2023-03-02T20:00:30.749Z,44.00
2023-03-02T20:02:59.227Z,45.00
2023-03-02T20:05:27.945Z,57.50
2023-03-02T20:07:56.022Z,51.40
2023-03-02T20:10:37.424Z,87.40
2023-03-02T20:13:06.465Z,124.00
2023-03-02T20:15:38.690Z,80.40
2023-03-02T20:18:09.472Z,165.20
2023-03-02T20:20:37.605Z,85.80
2023-03-02T20:23:05.537Z,76.10
2023-03-02T20:25:34.844Z,53.10
2023-03-02T20:28:05.672Z,52.90
2023-03-02T20:30:38.038Z,52.50
2023-03-02T20:33:07.684Z,54.00
2023-03-02T20:35:40.144Z,44.50
2023-03-02T20:38:13.188Z,68.50
2023-03-02T20:40:41.641Z,90.10
2023-03-02T20:43:09.488Z,56.00
2023-03-02T20:45:37.489Z,45.80
2023-03-02T20:48:05.594Z,54.20
2023-03-02T20:50:35.237Z,45.90
2023-03-02T20:53:05.570Z,35.30
2023-03-02T20:55:34.481Z,37.90
2023-03-02T20:58:02.822Z,34.40
2023-03-02T21:00:32.998Z,34.90
2023-03-02T21:03:00.876Z,34.50
2023-03-02T21:05:30.907Z,35.30
2023-03-02T21:07:59.536Z,32.90
2023-03-02T21:10:32.176Z,36.80
2023-03-02T21:13:00.324Z,49.10
2023-03-02T21:15:28.925Z,34.80
2023-03-02T21:17:59.396Z,37.60
2023-03-02T21:20:32.060Z,35.90
2023-03-02T21:22:59.884Z,34.90
2023-03-02T21:25:28.371Z,41.80
2023-03-02T21:27:56.868Z,45.60
2023-03-02T21:30:29.376Z,46.00
2023-03-02T21:32:57.657Z,45.50
2023-03-02T21:35:25.959Z,49.80
2023-03-02T21:37:58.087Z,53.80
2023-03-02T21:40:31.898Z,40.30
2023-03-02T21:43:01.860Z,37.80
2023-03-02T21:45:29.793Z,39.90
2023-03-02T21:47:57.842Z,37.60
2023-03-02T21:50:29.616Z,36.30
2023-03-02T21:53:01.341Z,39.50
2023-03-02T21:55:30.913Z,35.10
2023-03-02T21:57:59.313Z,37.90
2023-03-02T22:00:37.502Z,39.40
2023-03-02T22:03:06.650Z,41.70
2023-03-02T22:05:34.517Z,36.40
2023-03-02T22:08:02.592Z,49.40
2023-03-02T22:10:32.654Z,64.20
2023-03-02T22:13:17.729Z,75.80
2023-03-02T22:15:47.706Z,28.90
2023-03-02T22:18:19.484Z,37.20
2023-03-02T22:20:50.096Z,37.40
2023-03-02T22:23:21.286Z,46.00
2023-03-02T22:26:14.718Z,37.70
2023-03-02T22:28:43.129Z,35.10
2023-03-02T22:31:20.169Z,35.50
2023-03-02T22:33:49.676Z,37.00
2023-03-02T22:36:23.503Z,36.60
2023-03-02T22:38:51.744Z,41.00
2023-03-02T22:41:20.519Z,37.10
2023-03-02T22:43:49.628Z,36.40
2023-03-02T22:46:20.721Z,34.80
2023-03-02T22:48:52.839Z,35.20
2023-03-02T22:51:28.015Z,32.50
2023-03-02T22:53:58.941Z,37.70
2023-03-02T22:56:29.662Z,32.90
2023-03-02T22:59:21.899Z,34.60
2023-03-02T23:01:50.566Z,37.70
2023-03-02T23:04:18.632Z,35.00
2023-03-02T23:06:50.349Z,34.10
2023-03-02T23:09:24.957Z,31.20
2023-03-02T23:11:56.600Z,32.60
2023-03-02T23:14:24.928Z,32.50
2023-03-02T23:16:58.370Z,29.20
2023-03-02T23:19:30.837Z,32.50
2023-03-02T23:21:58.836Z,40.90
2023-03-02T23:24:27.347Z,31.10
2023-03-02T23:26:55.512Z,32.50
2023-03-02T23:29:23.594Z,28.30
2023-03-02T23:31:51.761Z,30.20
2023-03-02T23:34:20.446Z,29.90
2023-03-02T23:36:48.407Z,34.90
2023-03-02T23:39:17.624Z,32.60
2023-03-02T23:41:45.700Z,50.00
2023-03-02T23:44:13.598Z,66.50
2023-03-02T23:46:41.500Z,37.80
2023-03-02T23:49:09.521Z,33.20
2023-03-02T23:51:37.466Z,32.50
2023-03-02T23:54:05.277Z,32.20
2023-03-02T23:56:33.243Z,32.20
2023-03-02T23:59:02.451Z,30.70
